Time;durP1;ratioP1;P1;durP2;ratioP2;P2;SDS_P1;SDS_P2;PMS_P1;PMS_P2;Temp;Humidity;BMP_temperature;BMP_pressure;BME280_temperature;BME280_humidity;BME280_pressure;Samples;Min_cycle;Max_cycle;Signal;HPM_P1;HPM_P2
2023/11/23 00:02:10;;;;;;;2.07;1.80;;;22.40;61.90;;;;;;5117352;28;20484;-84
2023/11/23 00:04:38;;;;;;;2.10;2.00;;;22.40;61.90;;;;;;5114217;28;20472;-84
2023/11/23 00:07:05;;;;;;;2.57;2.37;;;22.30;61.90;;;;;;5099191;28;20439;-85
2023/11/23 00:09:31;;;;;;;3.73;2.73;;;22.30;61.90;;;;;;5100532;28;20440;-84
2023/11/23 00:11:58;;;;;;;2.13;1.93;;;22.30;61.90;;;;;;5098962;28;20447;-84
2023/11/23 00:14:25;;;;;;;1.97;1.87;;;22.30;61.90;;;;;;5097643;28;20434;-84
2023/11/23 00:16:52;;;;;;;2.03;1.83;;;22.30;61.90;;;;;;5095009;28;20522;-84
2023/11/23 00:19:18;;;;;;;2.93;2.63;;;22.30;62.10;;;;;;5097623;28;20951;-84
2023/11/23 00:21:47;;;;;;;2.53;1.80;;;22.30;62.00;;;;;;5101208;28;20509;-84
2023/11/23 00:24:15;;;;;;;2.03;1.80;;;22.30;62.00;;;;;;5096803;28;20541;-85
2023/11/23 00:26:41;;;;;;;2.30;2.10;;;22.30;62.10;;;;;;5102412;28;20940;-85
2023/11/23 00:29:08;;;;;;;2.37;2.17;;;22.30;62.20;;;;;;5109226;22;20430;-84
2023/11/23 00:31:35;;;;;;;1.90;1.80;;;22.30;62.20;;;;;;5124215;28;20438;-85
2023/11/23 00:34:03;;;;;;;2.10;1.90;;;22.20;62.10;;;;;;5126242;22;20458;-84
2023/11/23 00:36:30;;;;;;;2.30;2.10;;;22.20;62.20;;;;;;5101221;28;20444;-84
2023/11/23 00:41:27;;;;;;;2.70;2.50;;;22.20;62.20;;;;;;5082639;28;20491;-84
2023/11/23 00:43:54;;;;;;;2.47;2.00;;;22.20;62.50;;;;;;5121482;22;20514;-84
2023/11/23 00:46:21;;;;;;;2.37;2.17;;;22.20;62.30;;;;;;5120523;28;20427;-85
2023/11/23 00:48:48;;;;;;;1.97;1.87;;;22.20;62.40;;;;;;5126399;28;20472;-85
2023/11/23 00:51:16;;;;;;;1.80;1.70;;;22.20;62.40;;;;;;5123292;28;20430;-84
2023/11/23 00:53:44;;;;;;;2.70;2.50;;;22.20;62.50;;;;;;5130077;22;20462;-85
2023/11/23 00:56:11;;;;;;;2.23;2.03;;;22.20;62.50;;;;;;5130439;22;20502;-84
2023/11/23 00:58:39;;;;;;;2.17;1.97;;;22.20;62.50;;;;;;5128112;22;20500;-84
2023/11/23 01:01:07;;;;;;;2.20;2.00;;;22.20;62.60;;;;;;5128309;22;20469;-84
2023/11/23 01:03:33;;;;;;;2.10;2.00;;;22.20;62.60;;;;;;5130875;22;20547;-84
2023/11/23 01:08:26;;;;;;;2.23;2.10;;;22.20;62.80;;;;;;5177179;22;20513;-84
2023/11/23 01:10:53;;;;;;;2.20;2.00;;;22.20;62.80;;;;;;5121809;28;20203;-85
2023/11/23 01:13:20;;;;;;;2.10;2.00;;;22.20;62.80;;;;;;5120244;28;20504;-84
2023/11/23 01:15:48;;;;;;;2.33;2.13;;;22.20;62.70;;;;;;5124253;28;20448;-85
2023/11/23 01:18:15;;;;;;;1.83;1.73;;;22.20;62.80;;;;;;5122810;28;20450;-84
2023/11/23 01:20:42;;;;;;;2.90;2.10;;;22.20;63.60;;;;;;5116296;28;20997;-84
2023/11/23 01:23:09;;;;;;;2.47;2.27;;;22.20;62.70;;;;;;5116727;28;20411;-85
2023/11/23 01:25:36;;;;;;;1.87;1.77;;;22.20;62.60;;;;;;5116134;28;20929;-85
2023/11/23 01:28:02;;;;;;;2.00;1.90;;;22.20;62.70;;;;;;5114290;28;20438;-84
2023/11/23 01:30:29;;;;;;;2.10;2.00;;;22.20;62.70;;;;;;5118674;28;20423;-85
2023/11/23 01:32:57;;;;;;;2.20;2.00;;;22.20;62.70;;;;;;5116552;28;20821;-85
2023/11/23 01:35:24;;;;;;;2.43;2.23;;;22.20;62.70;;;;;;5097007;28;20451;-84
2023/11/23 01:37:51;;;;;;;2.60;2.40;;;22.20;62.60;;;;;;5098416;28;20465;-84
2023/11/23 01:40:18;;;;;;;2.37;2.17;;;22.20;62.70;;;;;;5095709;28;20518;-84
2023/11/23 01:42:45;;;;;;;1.77;1.67;;;22.20;62.60;;;;;;5094947;28;20952;-84
2023/11/23 01:45:12;;;;;;;2.37;2.10;;;22.20;62.50;;;;;;5096442;28;20431;-84
2023/11/23 01:47:42;;;;;;;1.90;1.80;;;22.20;62.70;;;;;;5097137;28;20439;-85
2023/11/23 01:50:14;;;;;;;3.10;2.07;;;22.20;62.60;;;;;;5128729;22;20482;-84
2023/11/23 01:52:41;;;;;;;2.20;2.00;;;22.20;62.60;;;;;;5122655;28;20456;-84
2023/11/23 01:55:09;;;;;;;2.00;1.80;;;22.40;62.90;;;;;;5125640;22;20486;-85
2023/11/23 01:57:38;;;;;;;3.50;2.47;;;22.20;62.50;;;;;;5123418;28;20449;-84
2023/11/23 02:00:06;;;;;;;1.70;1.60;;;22.30;62.80;;;;;;5128116;28;20503;-85
2023/11/23 02:02:33;;;;;;;2.27;1.80;;;22.30;62.70;;;;;;5125215;28;20494;-84
2023/11/23 02:05:02;;;;;;;2.00;1.80;;;22.30;62.60;;;;;;5126603;22;20489;-85
2023/11/23 02:07:32;;;;;;;2.37;2.17;;;22.30;62.70;;;;;;5117158;22;20508;-85
2023/11/23 02:09:59;;;;;;;2.40;2.20;;;22.30;62.70;;;;;;5105933;28;20428;-84
2023/11/23 02:12:27;;;;;;;2.60;2.40;;;22.30;62.70;;;;;;5103816;28;20489;-85
2023/11/23 02:14:55;;;;;;;2.03;1.93;;;22.30;62.80;;;;;;5103867;28;20534;-85
2023/11/23 02:17:23;;;;;;;2.50;2.20;;;22.30;62.70;;;;;;5106169;28;20477;-84
2023/11/23 02:19:50;;;;;;;2.20;2.10;;;22.30;62.60;;;;;;5106181;28;20453;-85
2023/11/23 02:22:18;;;;;;;2.30;2.10;;;22.30;62.60;;;;;;5120198;22;20597;-84
2023/11/23 02:24:46;;;;;;;2.53;2.33;;;22.30;62.70;;;;;;5160334;22;20522;-84
2023/11/23 02:27:13;;;;;;;2.60;2.20;;;22.30;62.70;;;;;;5124702;28;20414;-85
2023/11/23 02:29:40;;;;;;;1.83;1.73;;;22.30;62.70;;;;;;5126803;28;20494;-84
2023/11/23 02:32:08;;;;;;;2.60;2.40;;;22.30;62.70;;;;;;5126338;28;20533;-85
2023/11/23 02:34:35;;;;;;;1.90;1.80;;;22.30;62.70;;;;;;5117604;22;20901;-85
2023/11/23 02:37:02;;;;;;;2.50;2.30;;;22.30;62.80;;;;;;5123816;23;20821;-84
2023/11/23 02:39:29;;;;;;;1.93;1.77;;;22.30;62.80;;;;;;5123316;28;20446;-85
2023/11/23 02:41:59;;;;;;;1.90;1.80;;;22.30;62.70;;;;;;5136381;22;20506;-85
2023/11/23 02:44:26;;;;;;;2.03;1.93;;;22.30;62.70;;;;;;5129488;28;20474;-85
2023/11/23 02:46:53;;;;;;;2.10;1.90;;;22.30;62.70;;;;;;5126110;28;20512;-84
2023/11/23 02:49:20;;;;;;;2.27;2.07;;;22.30;62.70;;;;;;5121895;28;20539;-84
2023/11/23 02:51:47;;;;;;;2.27;2.07;;;22.30;62.80;;;;;;5130651;22;20893;-84
2023/11/23 02:54:14;;;;;;;2.30;2.10;;;22.30;62.70;;;;;;5125953;28;20437;-84
2023/11/23 02:56:41;;;;;;;2.23;2.03;;;22.30;62.70;;;;;;5136523;22;20459;-85
2023/11/23 02:59:09;;;;;;;1.83;1.73;;;22.30;62.70;;;;;;5123176;28;20454;-85
2023/11/23 03:01:36;;;;;;;2.07;1.53;;;22.30;62.80;;;;;;5127194;28;20490;-84
2023/11/23 03:04:04;;;;;;;1.97;1.77;;;22.30;62.70;;;;;;5116944;28;20459;-85
2023/11/23 03:06:31;;;;;;;2.37;2.17;;;22.30;62.80;;;;;;5112319;22;20471;-85
2023/11/23 03:08:58;;;;;;;2.30;2.10;;;22.30;62.70;;;;;;5136142;22;20534;-84
2023/11/23 03:11:26;;;;;;;1.83;1.70;;;22.30;62.80;;;;;;5123836;28;20511;-84
2023/11/23 03:16:24;;;;;;;2.10;1.90;;;22.30;62.70;;;;;;5130416;22;20573;-84
2023/11/23 03:18:51;;;;;;;2.20;2.00;;;22.30;62.80;;;;;;5121151;28;20197;-84
2023/11/23 03:21:18;;;;;;;2.00;1.90;;;22.30;62.80;;;;;;5133441;22;20507;-84
2023/11/23 03:23:45;;;;;;;1.90;1.80;;;22.30;62.80;;;;;;5122739;28;21017;-85
2023/11/23 03:26:12;;;;;;;1.80;1.70;;;22.30;62.80;;;;;;5121658;28;20423;-84
2023/11/23 03:28:39;;;;;;;2.40;2.20;;;22.30;62.70;;;;;;5121190;28;20504;-85
2023/11/23 03:31:07;;;;;;;2.17;2.00;;;22.30;62.80;;;;;;5125750;28;20533;-84
2023/11/23 03:33:36;;;;;;;1.80;1.70;;;22.30;62.90;;;;;;5113500;28;20459;-84
2023/11/23 03:36:02;;;;;;;2.03;1.83;;;22.30;63.80;;;;;;5113641;22;20438;-84
2023/11/23 03:38:29;;;;;;;1.80;1.70;;;22.30;62.90;;;;;;5125863;28;20493;-85
2023/11/23 03:40:57;;;;;;;2.03;1.87;;;22.30;62.80;;;;;;5123359;28;20441;-84
2023/11/23 03:43:24;;;;;;;2.33;2.13;;;22.30;62.80;;;;;;5124146;28;20846;-85
2023/11/23 03:45:51;;;;;;;2.27;2.07;;;22.30;62.80;;;;;;5127127;28;20459;-84
2023/11/23 03:48:18;;;;;;;1.90;1.80;;;22.30;62.80;;;;;;5125898;28;20529;-85
2023/11/23 03:50:46;;;;;;;1.50;1.40;;;22.30;62.80;;;;;;5123644;28;20597;-85
2023/11/23 03:53:13;;;;;;;1.90;1.80;;;22.30;62.80;;;;;;5122943;28;20423;-84
2023/11/23 03:55:40;;;;;;;2.03;1.93;;;22.30;63.40;;;;;;5125201;28;20478;-84
2023/11/23 03:58:07;;;;;;;2.50;2.30;;;22.30;62.80;;;;;;5125429;28;20533;-84
2023/11/23 04:00:34;;;;;;;2.30;1.97;;;22.30;62.80;;;;;;5123457;28;20447;-84
2023/11/23 04:03:01;;;;;;;2.47;2.27;;;22.30;62.80;;;;;;5117434;28;20475;-85
2023/11/23 04:05:28;;;;;;;2.43;2.17;;;22.30;62.80;;;;;;5122005;22;20585;-84
2023/11/23 04:07:56;;;;;;;2.03;1.80;;;22.30;63.80;;;;;;5124110;28;20428;-84
2023/11/23 04:10:23;;;;;;;1.60;1.50;;;22.30;63.80;;;;;;5118888;28;20427;-84
2023/11/23 04:12:50;;;;;;;2.17;2.07;;;22.30;62.90;;;;;;5117721;28;20450;-85
2023/11/23 04:15:17;;;;;;;2.00;1.90;;;22.30;62.90;;;;;;5111408;28;20439;-84
2023/11/23 04:17:44;;;;;;;1.83;1.70;;;22.30;62.90;;;;;;5102998;28;20562;-84
2023/11/23 04:20:11;;;;;;;2.00;1.90;;;22.30;62.90;;;;;;5101193;28;20446;-85
2023/11/23 04:22:38;;;;;;;2.00;1.90;;;22.30;63.00;;;;;;5100623;28;20498;-84
2023/11/23 04:25:07;;;;;;;2.20;2.00;;;22.30;63.00;;;;;;5126587;23;20532;-84
2023/11/23 04:27:34;;;;;;;2.10;1.90;;;22.30;63.00;;;;;;5123930;28;20471;-84
2023/11/23 04:30:01;;;;;;;1.80;1.70;;;22.30;63.10;;;;;;5121862;28;20443;-85
2023/11/23 04:32:28;;;;;;;1.90;1.80;;;22.30;63.10;;;;;;5117547;28;20546;-84
2023/11/23 04:34:54;;;;;;;1.80;1.70;;;22.30;63.20;;;;;;5101564;28;20445;-84
2023/11/23 04:37:23;;;;;;;2.83;2.40;;;22.30;63.10;;;;;;5105769;28;20993;-84
2023/11/23 04:39:51;;;;;;;2.03;1.93;;;22.30;63.10;;;;;;5101112;28;20445;-85
2023/11/23 04:42:20;;;;;;;2.33;1.90;;;22.30;63.20;;;;;;5101140;28;20829;-84
2023/11/23 04:44:47;;;;;;;1.70;1.60;;;22.30;63.20;;;;;;5103431;28;20451;-84
2023/11/23 04:47:13;;;;;;;1.93;1.83;;;22.30;63.20;;;;;;5103306;28;20415;-84
2023/11/23 04:49:40;;;;;;;1.77;1.67;;;22.30;63.20;;;;;;5100663;28;20423;-84
2023/11/23 04:52:07;;;;;;;2.17;1.83;;;22.30;63.20;;;;;;5100521;28;20930;-84
2023/11/23 04:54:34;;;;;;;2.47;2.00;;;22.30;63.20;;;;;;5101900;28;20511;-84
2023/11/23 04:57:01;;;;;;;2.03;1.93;;;22.30;63.20;;;;;;5101997;28;20475;-84
2023/11/23 04:59:29;;;;;;;2.13;1.80;;;22.30;63.20;;;;;;5102346;28;20444;-84
2023/11/23 05:01:56;;;;;;;1.93;1.83;;;22.30;63.10;;;;;;5101699;28;20570;-84
2023/11/23 05:04:23;;;;;;;2.20;2.00;;;22.30;63.10;;;;;;5102641;28;21017;-84
2023/11/23 05:06:51;;;;;;;2.13;2.00;;;22.30;63.10;;;;;;5101527;28;20501;-84
2023/11/23 05:09:18;;;;;;;1.93;1.77;;;22.40;63.20;;;;;;5099824;28;20451;-84
2023/11/23 05:11:46;;;;;;;1.70;1.60;;;22.40;63.30;;;;;;5104224;28;20515;-84
2023/11/23 05:14:13;;;;;;;2.13;1.93;;;22.40;63.20;;;;;;5102657;28;20445;-84
2023/11/23 05:16:41;;;;;;;2.10;2.00;;;22.40;63.20;;;;;;5103528;28;20491;-84
2023/11/23 05:19:08;;;;;;;1.70;1.60;;;22.40;63.20;;;;;;5100475;28;20424;-84
2023/11/23 05:21:36;;;;;;;2.17;1.97;;;22.40;63.20;;;;;;5102650;28;20810;-84
2023/11/23 05:24:04;;;;;;;1.80;1.70;;;22.40;64.10;;;;;;5124965;22;20468;-84
2023/11/23 05:26:31;;;;;;;2.13;2.03;;;22.40;63.20;;;;;;5121397;28;20426;-84
2023/11/23 05:28:58;;;;;;;1.80;1.57;;;22.40;63.20;;;;;;5129629;22;20466;-83
2023/11/23 05:31:24;;;;;;;1.93;1.83;;;22.40;63.10;;;;;;5118665;28;20600;-84
2023/11/23 05:33:53;;;;;;;2.00;1.80;;;22.40;63.10;;;;;;5130689;22;20501;-84
2023/11/23 05:36:20;;;;;;;2.37;2.17;;;22.40;63.10;;;;;;5129428;28;20422;-84
2023/11/23 05:38:47;;;;;;;1.73;1.63;;;22.50;63.20;;;;;;5138136;22;20486;-84
2023/11/23 05:41:14;;;;;;;2.00;1.90;;;22.50;63.20;;;;;;5128086;28;20446;-84
2023/11/23 05:43:42;;;;;;;1.93;1.83;;;22.40;63.00;;;;;;5132089;22;20498;-84
2023/11/23 05:46:09;;;;;;;1.80;1.70;;;22.50;63.10;;;;;;5127061;28;20480;-85
2023/11/23 05:48:35;;;;;;;2.20;1.60;;;22.50;64.00;;;;;;5123845;28;20768;-84
2023/11/23 05:51:04;;;;;;;2.13;2.00;;;22.50;63.10;;;;;;5133042;22;20486;-84
2023/11/23 05:53:31;;;;;;;1.90;1.80;;;22.40;63.10;;;;;;5123433;28;20490;-84
2023/11/23 05:55:58;;;;;;;2.57;1.60;;;22.50;63.20;;;;;;5128131;28;20446;-85
2023/11/23 05:58:25;;;;;;;2.30;2.10;;;22.40;63.10;;;;;;5126450;28;20485;-84
2023/11/23 06:00:52;;;;;;;2.10;2.00;;;22.40;63.10;;;;;;5124321;28;20438;-84
2023/11/23 06:03:19;;;;;;;1.90;1.80;;;22.40;64.00;;;;;;5103480;28;20670;-84
2023/11/23 06:05:46;;;;;;;2.00;1.90;;;22.40;63.10;;;;;;5100395;28;20447;-85
2023/11/23 06:08:14;;;;;;;2.30;2.10;;;22.50;63.20;;;;;;5123095;28;20417;-84
2023/11/23 06:10:42;;;;;;;1.97;1.87;;;22.50;63.20;;;;;;5106727;28;20448;-84
2023/11/23 06:13:09;;;;;;;1.77;1.60;;;22.50;63.10;;;;;;5097090;28;20439;-84
2023/11/23 06:15:36;;;;;;;2.00;1.80;;;22.50;63.10;;;;;;5102063;28;20454;-84
2023/11/23 06:18:03;;;;;;;1.93;1.83;;;22.50;63.20;;;;;;5097438;28;20796;-84
2023/11/23 06:20:30;;;;;;;2.47;2.27;;;22.50;63.10;;;;;;5096940;28;20489;-84
2023/11/23 06:22:57;;;;;;;2.20;2.10;;;22.50;63.30;;;;;;5104597;28;20459;-85
2023/11/23 06:25:25;;;;;;;1.70;1.60;;;22.50;63.20;;;;;;5100400;28;20444;-84
2023/11/23 06:27:52;;;;;;;2.00;1.80;;;22.50;63.20;;;;;;5101443;28;20526;-84
2023/11/23 06:30:19;;;;;;;2.20;2.00;;;22.50;63.20;;;;;;5103973;28;20443;-84
2023/11/23 06:32:46;;;;;;;2.13;2.03;;;22.60;63.30;;;;;;5106143;28;20463;-84
2023/11/23 06:35:14;;;;;;;2.33;2.13;;;22.60;63.20;;;;;;5106204;28;20438;-84
2023/11/23 06:37:41;;;;;;;1.97;1.57;;;22.60;63.30;;;;;;5104040;28;20435;-84
2023/11/23 06:40:09;;;;;;;1.83;1.53;;;22.60;63.30;;;;;;5103971;28;20442;-87
2023/11/23 06:42:37;;;;;;;1.87;1.77;;;22.60;63.30;;;;;;5112817;28;20965;-84
2023/11/23 06:45:05;;;;;;;1.77;1.67;;;22.60;63.30;;;;;;5130539;28;20444;-84
2023/11/23 06:47:32;;;;;;;3.23;1.93;;;22.70;63.30;;;;;;5119106;28;20499;-84
2023/11/23 06:49:58;;;;;;;1.60;1.50;;;22.70;63.30;;;;;;5122249;28;20443;-84
2023/11/23 06:52:25;;;;;;;2.67;1.60;;;22.70;63.40;;;;;;5118297;28;20474;-84
2023/11/23 06:54:52;;;;;;;1.90;1.80;;;22.70;63.30;;;;;;5118106;28;20419;-84
2023/11/23 06:57:19;;;;;;;1.70;1.60;;;22.70;63.30;;;;;;5119349;28;20442;-84
2023/11/23 06:59:48;;;;;;;1.87;1.67;;;22.70;63.30;;;;;;5114506;28;20446;-84
2023/11/23 07:02:14;;;;;;;1.80;1.70;;;22.70;63.50;;;;;;5116415;28;20537;-84
2023/11/23 07:04:41;;;;;;;7.63;1.70;;;22.70;63.30;;;;;;5118551;28;20457;-84
2023/11/23 07:07:09;;;;;;;2.00;1.90;;;22.80;63.50;;;;;;5104323;28;20926;-84
2023/11/23 07:09:36;;;;;;;1.80;1.70;;;22.80;63.50;;;;;;5107149;28;20459;-87
2023/11/23 07:12:04;;;;;;;2.77;1.80;;;22.80;63.50;;;;;;5104414;28;20798;-84
2023/11/23 07:14:31;;;;;;;3.20;3.00;;;22.80;63.10;;;;;;5108602;28;20444;-84
2023/11/23 07:16:59;;;;;;;3.87;2.20;;;22.80;63.30;;;;;;5110007;28;20447;-84
2023/11/23 07:19:26;;;;;;;4.53;2.13;;;22.80;63.00;;;;;;5095075;28;20443;-84
2023/11/23 07:21:52;;;;;;;1.50;1.40;;;22.80;63.70;;;;;;5097030;28;20491;-84
2023/11/23 07:24:19;;;;;;;2.40;2.07;;;22.80;63.70;;;;;;5094807;28;20487;-84
2023/11/23 07:26:46;;;;;;;1.60;1.50;;;22.80;63.70;;;;;;5098023;28;20479;-84
2023/11/23 07:29:13;;;;;;;2.40;2.20;;;22.80;63.80;;;;;;5114502;22;20844;-84
2023/11/23 07:31:40;;;;;;;1.93;1.53;;;22.80;63.90;;;;;;5113328;28;20445;-84
2023/11/23 07:34:08;;;;;;;2.80;1.80;;;22.80;63.90;;;;;;5093114;28;20939;-83
2023/11/23 07:36:35;;;;;;;2.50;2.30;;;22.80;63.80;;;;;;5093415;28;20441;-84
2023/11/23 07:39:02;;;;;;;1.97;1.77;;;22.80;63.80;;;;;;5092964;28;20451;-84
2023/11/23 07:41:30;;;;;;;2.03;1.83;;;22.80;63.80;;;;;;5087365;28;20526;-88
2023/11/23 07:43:57;;;;;;;1.60;1.50;;;22.80;63.80;;;;;;5090699;28;20584;-85
2023/11/23 07:46:25;;;;;;;2.60;1.70;;;22.80;63.80;;;;;;5091640;28;20853;-85
2023/11/23 07:48:53;;;;;;;5.53;2.60;;;22.90;63.80;;;;;;5094126;28;20478;-91
2023/11/23 07:51:21;;;;;;;2.60;2.40;;;22.80;62.60;;;;;;5098372;23;21261;-94
2023/11/23 07:53:48;;;;;;;3.00;1.90;;;22.80;62.30;;;;;;5079422;28;20475;-84
2023/11/23 07:56:16;;;;;;;2.27;1.90;;;22.80;63.70;;;;;;5078663;28;20439;-96
2023/11/23 07:58:45;;;;;;;2.33;2.00;;;22.80;63.90;;;;;;5079588;28;20923;-83
2023/11/23 08:01:11;;;;;;;5.57;2.20;;;22.80;63.90;;;;;;5078181;28;20472;-84
2023/11/23 08:03:38;;;;;;;1.93;1.83;;;22.80;62.60;;;;;;5092078;28;20491;-87
2023/11/23 08:06:06;;;;;;;2.73;2.00;;;22.80;63.70;;;;;;5094101;28;20424;-83
2023/11/23 08:08:34;;;;;;;1.77;1.67;;;22.80;63.80;;;;;;5098153;28;20447;-84
2023/11/23 08:13:36;;;;;;;2.00;1.70;;;22.80;63.80;;;;;;4901933;22;20474;-83
2023/11/23 08:16:04;;;;;;;2.20;2.07;;;22.80;63.80;;;;;;5114180;28;20449;-83
2023/11/23 08:18:31;;;;;;;2.30;1.63;;;22.80;63.80;;;;;;5115033;28;20443;-83
2023/11/23 08:20:58;;;;;;;1.60;1.50;;;22.80;63.70;;;;;;5114714;28;20945;-83
2023/11/23 08:23:25;;;;;;;2.17;1.90;;;22.80;63.80;;;;;;5114279;28;20830;-83
2023/11/23 08:25:54;;;;;;;1.70;1.60;;;22.80;63.70;;;;;;5115159;28;20495;-84
2023/11/23 08:28:21;;;;;;;3.87;2.10;;;22.90;63.80;;;;;;5116679;28;20431;-83
2023/11/23 08:30:48;;;;;;;1.60;1.40;;;22.90;63.80;;;;;;5119165;28;20435;-84
2023/11/23 08:33:15;;;;;;;2.07;1.97;;;22.90;63.80;;;;;;5100805;28;20539;-84
2023/11/23 08:35:42;;;;;;;3.80;2.30;;;22.90;63.80;;;;;;5095614;28;20436;-83
2023/11/23 08:38:09;;;;;;;1.70;1.43;;;22.90;63.70;;;;;;5096968;28;20436;-83
2023/11/23 08:40:35;;;;;;;1.53;1.43;;;22.90;63.70;;;;;;5097730;28;20436;-95
2023/11/23 08:43:06;;;;;;;1.80;1.70;;;22.90;63.70;;;;;;5098744;28;20459;-83
2023/11/23 08:45:32;;;;;;;2.00;1.90;;;22.90;63.60;;;;;;5097457;28;20446;-84
2023/11/23 08:47:59;;;;;;;1.87;1.60;;;22.90;63.60;;;;;;5097518;28;20436;-84
2023/11/23 08:50:27;;;;;;;1.70;1.60;;;22.90;63.60;;;;;;5101247;28;20432;-83
2023/11/23 08:52:57;;;;;;;1.87;1.77;;;22.90;63.60;;;;;;5097472;28;20465;-83
2023/11/23 08:55:24;;;;;;;2.37;1.60;;;22.90;63.70;;;;;;5096826;28;20846;-83
2023/11/23 08:57:51;;;;;;;2.20;2.00;;;22.90;63.70;;;;;;5099161;28;20419;-83
2023/11/23 09:00:23;;;;;;;1.80;1.70;;;22.90;63.60;;;;;;5094647;28;20826;-83
2023/11/23 09:02:53;;;;;;;1.90;1.80;;;22.90;63.60;;;;;;5099722;28;20459;-83
2023/11/23 09:05:20;;;;;;;1.43;1.33;;;22.90;63.60;;;;;;5099729;28;20422;-84
2023/11/23 09:07:47;;;;;;;2.70;1.50;;;22.90;63.60;;;;;;5099589;28;20435;-83
2023/11/23 09:10:14;;;;;;;1.60;1.50;;;22.90;63.60;;;;;;5101505;28;20436;-83
2023/11/23 09:12:41;;;;;;;1.60;1.50;;;22.90;63.70;;;;;;5101495;28;20508;-96
2023/11/23 09:15:10;;;;;;;1.90;1.70;;;22.90;63.70;;;;;;5098223;28;20485;-83
2023/11/23 09:17:38;;;;;;;2.20;2.00;;;22.90;63.70;;;;;;5101525;28;20515;-83
2023/11/23 09:20:08;;;;;;;1.77;1.67;;;22.90;63.70;;;;;;5100213;28;20427;-83
2023/11/23 09:22:35;;;;;;;1.73;1.63;;;22.90;63.70;;;;;;5099019;28;20569;-84
2023/11/23 09:25:03;;;;;;;2.13;2.00;;;22.90;63.60;;;;;;5103055;28;20570;-84
2023/11/23 09:27:30;;;;;;;3.00;1.60;;;22.90;63.60;;;;;;5100296;28;20500;-83
2023/11/23 09:29:58;;;;;;;1.60;1.50;;;22.90;63.60;;;;;;5100463;28;20462;-83
2023/11/23 09:32:25;;;;;;;2.03;1.67;;;22.90;63.50;;;;;;5098944;28;20455;-83
2023/11/23 09:34:54;;;;;;;1.30;1.20;;;22.90;63.50;;;;;;5099909;28;20427;-83
2023/11/23 09:37:21;;;;;;;1.60;1.50;;;22.90;63.50;;;;;;5099640;28;20439;-84
2023/11/23 09:39:49;;;;;;;1.90;1.73;;;22.90;63.60;;;;;;5102493;28;20439;-83
2023/11/23 09:42:18;;;;;;;2.13;1.40;;;22.90;63.60;;;;;;5100848;28;20530;-84
2023/11/23 09:44:46;;;;;;;1.70;1.60;;;23.00;63.70;;;;;;5101763;28;20479;-83
2023/11/23 09:47:14;;;;;;;2.30;1.60;;;23.00;63.70;;;;;;5102707;28;20435;-83
2023/11/23 09:49:42;;;;;;;3.27;1.87;;;23.00;63.70;;;;;;5099441;28;20435;-84
2023/11/23 09:52:11;;;;;;;5.23;1.53;;;23.00;63.70;;;;;;5098720;28;20435;-85
2023/11/23 09:54:37;;;;;;;3.73;1.90;;;23.00;63.70;;;;;;5102038;28;20442;-84
2023/11/23 09:57:05;;;;;;;1.87;1.60;;;23.00;63.60;;;;;;5100385;28;20438;-83
2023/11/23 09:59:32;;;;;;;1.93;1.83;;;23.00;63.60;;;;;;5101534;28;20447;-96
2023/11/23 10:02:04;;;;;;;2.03;1.87;;;23.00;63.60;;;;;;5102425;28;20459;-92
2023/11/23 10:04:31;;;;;;;1.40;1.30;;;23.00;63.60;;;;;;5102921;28;20459;-84
2023/11/23 10:07:00;;;;;;;1.70;1.60;;;23.00;63.60;;;;;;5106361;28;20844;-84
2023/11/23 10:09:32;;;;;;;3.67;1.50;;;23.00;63.60;;;;;;5102365;28;20796;-83
2023/11/23 10:12:01;;;;;;;2.27;2.03;;;23.00;63.50;;;;;;5102865;28;20436;-83
2023/11/23 10:14:28;;;;;;;1.97;1.50;;;23.00;63.60;;;;;;5102389;28;20489;-83
2023/11/23 10:16:55;;;;;;;1.93;1.80;;;23.00;63.50;;;;;;5098975;28;20435;-84
2023/11/23 10:19:22;;;;;;;1.20;1.10;;;23.00;63.50;;;;;;5101137;28;20435;-84
2023/11/23 10:21:49;;;;;;;2.67;1.83;;;23.00;63.50;;;;;;5102542;28;20875;-83
2023/11/23 10:24:18;;;;;;;1.53;1.43;;;23.00;63.50;;;;;;5099422;28;20843;-83
2023/11/23 10:26:46;;;;;;;2.27;1.40;;;23.00;63.50;;;;;;5102937;28;20467;-96
2023/11/23 10:29:13;;;;;;;1.60;1.50;;;23.00;63.40;;;;;;5101342;28;20485;-96
2023/11/23 10:31:40;;;;;;;1.97;1.87;;;23.00;63.40;;;;;;5100091;28;20451;-83
2023/11/23 10:34:08;;;;;;;1.70;1.60;;;23.00;63.40;;;;;;5097523;28;20930;-84
2023/11/23 10:36:39;;;;;;;1.77;1.67;;;23.00;63.40;;;;;;5098921;28;20784;-84
2023/11/23 10:39:10;;;;;;;1.67;1.57;;;23.00;63.50;;;;;;5100587;28;20863;-84
2023/11/23 10:41:37;;;;;;;1.93;1.73;;;23.00;63.60;;;;;;5100721;28;20436;-89
2023/11/23 10:44:08;;;;;;;2.03;1.50;;;23.00;63.50;;;;;;5100938;28;20540;-83
2023/11/23 10:46:38;;;;;;;1.83;1.73;;;23.00;63.50;;;;;;5103905;28;20444;-96
2023/11/23 10:49:08;;;;;;;2.03;1.43;;;23.00;63.50;;;;;;5099777;28;20432;-84
2023/11/23 10:51:35;;;;;;;1.73;1.37;;;23.00;63.60;;;;;;5099051;28;20438;-84
2023/11/23 10:54:02;;;;;;;1.50;1.40;;;23.00;63.60;;;;;;5100750;28;20444;-83
2023/11/23 10:56:31;;;;;;;1.40;1.30;;;23.00;63.60;;;;;;5100791;28;20427;-83
2023/11/23 10:59:02;;;;;;;1.50;1.40;;;23.00;63.60;;;;;;5097748;28;20493;-83
2023/11/23 11:01:32;;;;;;;2.00;1.90;;;23.00;63.60;;;;;;5100925;28;20456;-96
2023/11/23 11:03:59;;;;;;;1.60;1.50;;;23.00;63.60;;;;;;5101736;28;20479;-83
2023/11/23 11:06:27;;;;;;;1.60;1.50;;;23.00;63.60;;;;;;5109232;22;20880;-83
2023/11/23 11:08:53;;;;;;;1.57;1.47;;;23.00;63.60;;;;;;5119205;28;20795;-91
2023/11/23 11:11:22;;;;;;;1.43;1.33;;;23.00;63.50;;;;;;5119976;28;20435;-83
2023/11/23 11:13:49;;;;;;;1.70;1.60;;;23.00;63.50;;;;;;5119922;28;20861;-83
2023/11/23 11:16:17;;;;;;;1.50;1.40;;;23.00;63.50;;;;;;5121896;28;20509;-96
2023/11/23 11:18:52;;;;;;;1.70;1.60;;;23.00;63.60;;;;;;5119861;28;20482;-83
2023/11/23 11:21:20;;;;;;;1.57;1.47;;;23.00;63.50;;;;;;5119012;28;20438;-83
2023/11/23 11:23:50;;;;;;;2.03;1.80;;;23.10;63.60;;;;;;5120059;28;20484;-83
2023/11/23 11:26:18;;;;;;;1.97;1.77;;;23.10;63.60;;;;;;5118272;28;20438;-84
2023/11/23 11:28:53;;;;;;;1.87;1.67;;;23.10;63.60;;;;;;5119223;28;20427;-87
2023/11/23 11:31:29;;;;;;;1.73;1.63;;;23.00;63.60;;;;;;5119381;28;20426;-83
2023/11/23 11:33:57;;;;;;;1.67;1.40;;;23.10;63.60;;;;;;5102767;28;20934;-84
2023/11/23 11:36:27;;;;;;;1.50;1.40;;;23.10;63.60;;;;;;5099582;28;20446;-96
2023/11/23 11:38:55;;;;;;;1.90;1.80;;;23.10;63.50;;;;;;5099299;28;20942;-84
2023/11/23 11:41:24;;;;;;;1.63;1.53;;;23.10;63.50;;;;;;5103307;28;20436;-83
2023/11/23 11:43:52;;;;;;;1.53;1.43;;;23.10;63.60;;;;;;5096291;28;20452;-84
2023/11/23 11:46:20;;;;;;;3.20;1.70;;;23.10;63.60;;;;;;5100294;28;20439;-83
2023/11/23 11:48:47;;;;;;;1.67;1.57;;;23.10;63.50;;;;;;5097373;28;20493;-84
2023/11/23 11:51:15;;;;;;;1.60;1.50;;;23.10;63.60;;;;;;5099181;28;20438;-96
2023/11/23 11:53:44;;;;;;;1.53;1.43;;;23.10;63.50;;;;;;5098374;28;20793;-83
2023/11/23 11:56:12;;;;;;;1.73;1.63;;;23.10;63.50;;;;;;5099560;28;20434;-83
2023/11/23 11:58:39;;;;;;;1.60;1.50;;;23.10;63.40;;;;;;5103115;28;20432;-84
2023/11/23 12:01:07;;;;;;;1.27;1.17;;;23.10;63.40;;;;;;5099214;28;20543;-83
2023/11/23 12:03:34;;;;;;;1.87;1.67;;;23.20;63.50;;;;;;5097558;28;20439;-83
2023/11/23 12:06:03;;;;;;;4.30;1.50;;;23.10;63.30;;;;;;5097687;28;20440;-84
2023/11/23 12:08:34;;;;;;;1.60;1.50;;;23.10;63.30;;;;;;5102933;28;20492;-84
2023/11/23 12:11:02;;;;;;;1.67;1.57;;;23.20;63.50;;;;;;5097943;28;20518;-87
2023/11/23 12:13:32;;;;;;;1.53;1.43;;;23.20;63.60;;;;;;5106175;28;20439;-89
2023/11/23 12:15:59;;;;;;;1.50;1.40;;;23.20;63.50;;;;;;5104573;28;20442;-84
2023/11/23 12:18:30;;;;;;;1.60;1.50;;;23.20;63.50;;;;;;5095089;28;20436;-96
2023/11/23 12:20:58;;;;;;;1.60;1.50;;;23.20;64.40;;;;;;5096221;28;20962;-92
2023/11/23 12:23:26;;;;;;;1.70;1.40;;;23.10;62.50;;;;;;5103817;28;20444;-96
2023/11/23 12:25:55;;;;;;;1.30;1.20;;;23.10;62.90;;;;;;5103719;28;20475;-86
2023/11/23 12:28:32;;;;;;;1.90;1.80;;;23.10;63.10;;;;;;5107033;28;20436;-86
2023/11/23 12:30:59;;;;;;;1.97;1.80;;;23.10;63.20;;;;;;5110720;28;20458;-96
2023/11/23 12:33:27;;;;;;;1.37;1.27;;;23.10;63.30;;;;;;5109170;28;20444;-96
2023/11/23 12:35:54;;;;;;;1.87;1.70;;;23.20;63.50;;;;;;5107823;28;20447;-96
2023/11/23 12:38:21;;;;;;;1.87;1.77;;;23.00;63.20;;;;;;5105510;28;20945;-96
2023/11/23 12:40:48;;;;;;;1.50;1.40;;;23.20;63.50;;;;;;5103480;28;20490;-94
2023/11/23 12:43:17;;;;;;;1.73;1.60;;;23.20;63.50;;;;;;5104501;28;20431;-96
2023/11/23 12:45:44;;;;;;;2.13;1.60;;;23.20;63.50;;;;;;5107400;28;20490;-96
2023/11/23 12:50:40;;;;;;;1.87;1.67;;;23.20;63.50;;;;;;5108384;28;20479;-96
2023/11/23 12:53:07;;;;;;;2.20;1.77;;;23.20;63.60;;;;;;5109734;28;20446;-96
2023/11/23 12:55:34;;;;;;;1.90;1.30;;;23.20;63.60;;;;;;5109766;28;20477;-96
2023/11/23 12:58:01;;;;;;;6.33;2.37;;;23.20;63.70;;;;;;5109310;28;20445;-96
2023/11/23 13:00:35;;;;;;;2.20;2.00;;;23.20;63.70;;;;;;5109821;28;20439;-96
2023/11/23 13:03:04;;;;;;;5.63;2.23;;;23.20;64.10;;;;;;5087067;28;20460;-90